Oak Ridge, Tennessee
Current Conditions -  °F | °C
As of 4:53 AM on Saturday 29 Nov 2014 (Local Time) from KOQT Reporting Station
Clear Clear  
Wind Chill: 33°   Ceiling: Unl
Heat Index: 33°   Visibility: 10mi
Dew Point: 21°   Wind: 3mph
Humidity: 61%   Direction: 230°SW
Pressure: 30.23"   Gusts: NA
Location:  36.01°N, 84.25°W
Report Text: KOQT 290953Z AUTO 23003KT 10SM CLR 01/M06 A3023 RMK AO2 SLP247 T00061061
Loading
Personal Weather Stations






























Interactive Weather Map New forecast layout! Learn more

10-Day Weather Forecast

Advertisements
Track Severe Weather on mobile